createdAt,value
2024-01-16T00:00:24.135Z,47.54
2024-01-16T00:02:50.760Z,47.52
2024-01-16T00:05:17.450Z,47.63
2024-01-16T00:07:44.048Z,47.63
2024-01-16T00:10:10.844Z,47.56
2024-01-16T00:12:37.934Z,47.60
2024-01-16T00:15:06.362Z,47.60
2024-01-16T00:17:33.097Z,47.69
2024-01-16T00:20:04.717Z,47.51
2024-01-16T00:22:31.440Z,47.50
2024-01-16T00:25:02.189Z,47.61
2024-01-16T00:27:28.910Z,47.59
2024-01-16T00:29:55.346Z,47.61
2024-01-16T00:32:22.098Z,47.55
2024-01-16T00:34:48.720Z,47.61
2024-01-16T00:37:15.283Z,47.61
2024-01-16T00:39:41.786Z,47.59
2024-01-16T00:42:08.838Z,47.58
2024-01-16T00:44:35.706Z,47.62
2024-01-16T00:47:02.465Z,47.58
2024-01-16T00:49:29.833Z,47.65
2024-01-16T00:51:56.528Z,47.49
2024-01-16T00:54:23.157Z,47.62
2024-01-16T00:56:49.803Z,47.56
2024-01-16T00:59:16.647Z,47.59
2024-01-16T01:01:43.484Z,47.64
2024-01-16T01:04:10.035Z,47.61
2024-01-16T01:06:37.046Z,47.50
2024-01-16T01:09:03.897Z,47.74
2024-01-16T01:11:30.945Z,47.54
2024-01-16T01:13:57.490Z,47.59
2024-01-16T01:16:24.010Z,47.70
2024-01-16T01:18:50.804Z,47.59
2024-01-16T01:21:17.889Z,47.52
2024-01-16T01:23:44.410Z,47.61
2024-01-16T01:26:14.454Z,47.58
2024-01-16T01:28:41.596Z,47.64
2024-01-16T01:31:11.558Z,47.53
2024-01-16T01:33:38.172Z,47.56
2024-01-16T01:36:05.086Z,47.68
2024-01-16T01:38:31.752Z,47.57
2024-01-16T01:40:58.344Z,47.62
2024-01-16T01:43:25.391Z,47.63
2024-01-16T01:46:10.682Z,47.58
2024-01-16T01:48:38.453Z,47.59
2024-01-16T01:51:05.158Z,47.53
2024-01-16T01:53:32.035Z,47.68
2024-01-16T01:55:58.734Z,47.55
2024-01-16T01:58:25.378Z,47.54
2024-01-16T02:00:51.924Z,47.70
2024-01-16T02:03:18.562Z,47.61
2024-01-16T02:05:45.108Z,47.61
2024-01-16T02:08:12.145Z,47.64
2024-01-16T02:10:38.671Z,47.70
2024-01-16T02:13:05.602Z,47.65
2024-01-16T02:15:32.128Z,47.54
2024-01-16T02:17:58.698Z,47.64
2024-01-16T02:20:25.427Z,47.57
2024-01-16T02:22:52.247Z,47.60
2024-01-16T02:25:18.889Z,47.68
2024-01-16T02:27:45.728Z,47.57
2024-01-16T02:30:13.187Z,47.69
2024-01-16T02:32:39.899Z,47.76
2024-01-16T02:35:07.197Z,47.62
2024-01-16T02:37:33.798Z,47.61
2024-01-16T02:40:01.971Z,47.52
2024-01-16T02:42:28.401Z,47.62
2024-01-16T02:44:55.078Z,47.57
2024-01-16T02:47:21.602Z,47.63
2024-01-16T02:49:48.631Z,47.68
2024-01-16T02:52:15.785Z,47.68
2024-01-16T02:54:42.215Z,47.61
2024-01-16T02:57:08.759Z,47.64
2024-01-16T02:59:35.518Z,47.62
2024-01-16T03:02:03.151Z,47.61
2024-01-16T03:04:29.998Z,47.58
2024-01-16T03:06:56.706Z,47.66
2024-01-16T03:09:23.373Z,47.53
2024-01-16T03:11:49.896Z,47.62
2024-01-16T03:14:16.561Z,47.74
2024-01-16T03:16:43.183Z,47.73
2024-01-16T03:19:09.791Z,47.58
2024-01-16T03:21:36.453Z,47.68
2024-01-16T03:24:02.897Z,47.67
2024-01-16T03:26:29.581Z,47.63
2024-01-16T03:28:56.158Z,47.62
2024-01-16T03:31:22.972Z,47.56
2024-01-16T03:33:49.879Z,47.68
2024-01-16T03:36:17.092Z,47.80
2024-01-16T03:38:44.015Z,47.73
2024-01-16T03:41:13.814Z,47.67
2024-01-16T03:43:41.197Z,47.62
2024-01-16T03:46:08.452Z,47.75
2024-01-16T03:48:35.056Z,47.60
2024-01-16T03:51:03.262Z,47.72
2024-01-16T03:53:29.921Z,47.66
2024-01-16T03:55:56.634Z,47.73
2024-01-16T03:58:23.891Z,47.59
2024-01-16T04:00:51.722Z,47.69
2024-01-16T04:03:18.488Z,47.80
2024-01-16T04:05:45.248Z,47.67
2024-01-16T04:08:13.317Z,47.69
2024-01-16T04:10:39.941Z,47.60
2024-01-16T04:13:07.078Z,47.79
2024-01-16T04:15:34.332Z,47.75
2024-01-16T04:18:00.883Z,47.69
2024-01-16T04:20:27.424Z,47.62
2024-01-16T04:22:54.043Z,47.66
2024-01-16T04:25:20.673Z,47.71
2024-01-16T04:27:47.397Z,47.86
2024-01-16T04:30:14.244Z,47.62
2024-01-16T04:32:41.261Z,47.73
2024-01-16T04:35:08.392Z,47.83
2024-01-16T04:37:35.201Z,47.64
2024-01-16T04:40:01.726Z,47.76
2024-01-16T04:42:28.460Z,47.60
2024-01-16T04:44:55.262Z,47.67
2024-01-16T04:47:21.967Z,47.59
2024-01-16T04:49:48.784Z,47.80
2024-01-16T04:52:15.330Z,47.89
2024-01-16T04:54:41.952Z,47.68
2024-01-16T04:57:08.605Z,47.79
2024-01-16T04:59:35.144Z,47.75
2024-01-16T05:02:01.759Z,47.84
2024-01-16T05:04:28.397Z,47.87
2024-01-16T05:06:55.848Z,47.68
2024-01-16T05:09:22.390Z,47.79
2024-01-16T05:11:49.487Z,47.67
2024-01-16T05:14:16.124Z,47.68
2024-01-16T05:16:42.805Z,47.73
2024-01-16T05:19:09.426Z,47.71
2024-01-16T05:21:36.128Z,47.73
2024-01-16T05:24:03.332Z,47.88
2024-01-16T05:26:30.098Z,47.60
2024-01-16T05:28:56.704Z,47.88
2024-01-16T05:31:23.234Z,47.71
2024-01-16T05:33:50.099Z,47.84
2024-01-16T05:36:16.922Z,47.77
2024-01-16T05:38:44.616Z,47.78
2024-01-16T05:41:11.197Z,47.84
2024-01-16T05:43:37.749Z,47.75
2024-01-16T05:46:04.602Z,47.74
2024-01-16T05:48:31.316Z,47.91
2024-01-16T05:50:58.015Z,47.67
2024-01-16T05:53:24.632Z,47.63
2024-01-16T05:55:51.184Z,47.86
2024-01-16T05:58:17.884Z,47.86
2024-01-16T06:00:44.546Z,47.76
2024-01-16T06:03:11.247Z,47.91
2024-01-16T06:05:38.006Z,47.77
2024-01-16T06:08:05.340Z,47.71
2024-01-16T06:10:31.974Z,47.83
2024-01-16T06:12:58.620Z,47.71
2024-01-16T06:15:25.358Z,47.73
2024-01-16T06:17:51.966Z,47.92
2024-01-16T06:20:18.660Z,47.79
2024-01-16T06:22:45.270Z,47.67
2024-01-16T06:25:11.896Z,47.76
2024-01-16T06:27:38.536Z,47.73
2024-01-16T06:30:05.921Z,47.89
2024-01-16T06:32:33.012Z,47.84
2024-01-16T06:34:59.879Z,47.71
2024-01-16T06:37:26.313Z,47.78
2024-01-16T06:39:52.942Z,47.71
2024-01-16T06:42:20.502Z,47.92
2024-01-16T06:44:47.164Z,47.78
2024-01-16T06:47:13.708Z,47.75
2024-01-16T06:49:40.308Z,47.78
2024-01-16T06:52:09.059Z,47.81
2024-01-16T06:54:35.690Z,47.75
2024-01-16T06:57:02.213Z,47.86
2024-01-16T06:59:29.044Z,47.77
2024-01-16T07:01:55.959Z,47.74
2024-01-16T07:04:22.609Z,47.76
2024-01-16T07:06:49.318Z,47.86
2024-01-16T07:09:17.106Z,47.64
2024-01-16T07:11:44.031Z,47.76
2024-01-16T07:14:10.986Z,47.66
2024-01-16T07:16:37.604Z,47.58
2024-01-16T07:19:04.392Z,47.64
2024-01-16T07:21:31.072Z,47.53
2024-01-16T07:23:58.098Z,47.68
2024-01-16T07:26:24.918Z,47.43
2024-01-16T07:28:51.698Z,47.57
2024-01-16T07:31:18.435Z,47.62
2024-01-16T07:33:45.194Z,47.52
2024-01-16T07:36:12.017Z,47.50
2024-01-16T07:38:38.728Z,47.50
2024-01-16T07:41:06.223Z,47.39
2024-01-16T07:43:33.150Z,47.57
2024-01-16T07:46:00.530Z,47.43
2024-01-16T07:48:27.356Z,47.45
2024-01-16T07:50:54.765Z,47.50
2024-01-16T07:53:21.444Z,47.43
2024-01-16T07:55:48.173Z,47.46
2024-01-16T07:58:15.035Z,47.49
2024-01-16T08:00:41.762Z,47.47
2024-01-16T08:03:09.157Z,47.62
2024-01-16T08:05:36.437Z,47.48
2024-01-16T08:08:03.714Z,47.42
2024-01-16T08:10:30.450Z,47.43
2024-01-16T08:12:56.992Z,47.60
2024-01-16T08:15:23.545Z,47.47
2024-01-16T08:17:50.245Z,47.39
2024-01-16T08:20:36.811Z,47.51
2024-01-16T08:23:03.827Z,47.44
2024-01-16T08:25:30.488Z,47.51
2024-01-16T08:27:57.314Z,47.48
2024-01-16T08:30:24.196Z,47.53
2024-01-16T08:32:51.094Z,47.63
2024-01-16T08:35:18.092Z,47.48
2024-01-16T08:37:45.102Z,47.45
2024-01-16T08:40:12.448Z,47.48
2024-01-16T08:42:39.213Z,47.38
2024-01-16T08:45:06.738Z,47.41
2024-01-16T08:47:33.654Z,47.49
2024-01-16T08:50:00.312Z,47.35
2024-01-16T08:52:26.952Z,47.48
2024-01-16T08:54:53.590Z,47.51
2024-01-16T08:57:21.626Z,47.39
2024-01-16T08:59:49.489Z,47.42
2024-01-16T09:02:16.955Z,47.27
2024-01-16T09:04:43.886Z,47.39
2024-01-16T09:07:10.766Z,47.40
2024-01-16T09:09:37.506Z,47.34
2024-01-16T09:12:04.667Z,47.39
2024-01-16T09:14:31.458Z,47.44
2024-01-16T09:16:58.275Z,47.42
2024-01-16T09:19:24.994Z,47.27
2024-01-16T09:21:52.222Z,47.29
2024-01-16T09:24:19.676Z,47.21
2024-01-16T09:26:46.260Z,47.26
2024-01-16T09:29:12.994Z,47.20
2024-01-16T09:31:39.718Z,47.18
2024-01-16T09:34:09.668Z,47.23
2024-01-16T09:36:37.567Z,47.08
2024-01-16T09:39:08.507Z,47.08
2024-01-16T09:41:35.709Z,47.03
2024-01-16T09:44:02.494Z,47.21
2024-01-16T09:46:29.284Z,47.18
2024-01-16T09:48:56.901Z,47.03
2024-01-16T09:51:23.734Z,47.02
2024-01-16T09:53:50.492Z,47.08
2024-01-16T09:56:17.657Z,47.08
2024-01-16T09:58:44.974Z,46.94
2024-01-16T10:01:12.196Z,46.92
2024-01-16T10:03:39.216Z,46.94
2024-01-16T10:06:07.275Z,46.92
2024-01-16T10:08:34.214Z,47.05
2024-01-16T10:11:00.921Z,46.97
2024-01-16T10:13:27.557Z,46.96
2024-01-16T10:15:56.064Z,46.93
2024-01-16T10:18:25.174Z,46.97
2024-01-16T10:20:53.418Z,46.96
2024-01-16T10:23:24.791Z,46.97
2024-01-16T10:26:12.314Z,47.06
2024-01-16T10:28:42.563Z,46.94
2024-01-16T10:31:11.330Z,47.08
2024-01-16T10:33:40.150Z,46.97
2024-01-16T10:36:11.237Z,46.99
2024-01-16T10:38:39.331Z,46.96
2024-01-16T10:41:07.356Z,46.89
2024-01-16T10:43:33.932Z,46.93
2024-01-16T10:46:14.210Z,46.95
2024-01-16T10:48:43.218Z,46.91
2024-01-16T10:51:15.724Z,46.94
2024-01-16T10:53:45.636Z,46.92
2024-01-16T10:56:16.311Z,46.99
2024-01-16T10:58:44.085Z,46.97
2024-01-16T11:01:17.158Z,46.94
2024-01-16T11:03:50.566Z,46.88
2024-01-16T11:06:18.164Z,46.89
2024-01-16T11:08:48.754Z,46.92
2024-01-16T11:11:16.191Z,47.01
2024-01-16T11:27:10.690Z,46.90
2024-01-16T11:29:38.015Z,47.03
2024-01-16T11:32:18.042Z,46.98
2024-01-16T11:34:56.342Z,46.91
2024-01-16T11:37:28.408Z,46.96
2024-01-16T11:40:24.727Z,46.95
2024-01-16T11:42:54.045Z,46.96
2024-01-16T11:45:29.973Z,46.92
2024-01-16T11:48:12.839Z,46.81
2024-01-16T11:50:40.180Z,46.82
2024-01-16T11:53:06.882Z,46.81
2024-01-16T11:55:55.838Z,46.84
2024-01-16T11:58:28.051Z,46.84
2024-01-16T12:00:54.843Z,46.74
2024-01-16T12:03:31.435Z,46.67
2024-01-16T12:06:03.221Z,46.84
2024-01-16T12:08:30.357Z,46.73
2024-01-16T12:10:58.286Z,46.61
2024-01-16T12:13:24.834Z,46.69
2024-01-16T12:16:01.706Z,46.79
2024-01-16T12:18:38.506Z,46.77
2024-01-16T12:21:11.219Z,46.78
2024-01-16T12:23:38.720Z,46.72
2024-01-16T12:26:07.097Z,46.92
2024-01-16T12:28:34.432Z,46.80
2024-01-16T12:31:02.164Z,46.82
2024-01-16T12:33:30.168Z,46.84
2024-01-16T12:36:04.671Z,46.87
2024-01-16T12:38:32.042Z,46.90
2024-01-16T12:40:58.955Z,46.88
2024-01-16T12:43:25.650Z,46.87
2024-01-16T12:45:56.571Z,46.82
2024-01-16T12:48:24.858Z,46.88
2024-01-16T12:50:51.714Z,46.83
2024-01-16T12:53:24.516Z,46.84
2024-01-16T12:55:58.579Z,46.90
2024-01-16T12:58:27.362Z,46.87
2024-01-16T13:00:54.359Z,46.88
2024-01-16T13:03:27.134Z,46.86
2024-01-16T13:05:59.077Z,46.83
2024-01-16T13:08:26.225Z,46.86
2024-01-16T13:11:06.258Z,46.79
2024-01-16T13:13:33.392Z,46.90
2024-01-16T13:16:01.258Z,46.89
2024-01-16T13:18:28.947Z,46.77
2024-01-16T13:20:56.949Z,46.88
2024-01-16T13:23:25.789Z,46.90
2024-01-16T13:25:52.525Z,46.85
2024-01-16T13:28:21.393Z,46.81
2024-01-16T13:30:49.817Z,46.72
2024-01-16T13:33:17.287Z,46.80
2024-01-16T13:35:45.833Z,46.83
2024-01-16T13:38:13.414Z,46.77
2024-01-16T13:40:41.374Z,46.65
2024-01-16T13:43:07.876Z,46.62
2024-01-16T13:45:36.221Z,46.68
2024-01-16T13:48:03.441Z,46.68
2024-01-16T13:50:31.703Z,46.62
2024-01-16T13:52:58.414Z,46.63
2024-01-16T13:55:25.047Z,46.71
2024-01-16T13:57:53.089Z,46.72
2024-01-16T14:00:19.963Z,46.71
2024-01-16T14:02:47.477Z,46.76
2024-01-16T14:05:20.431Z,46.85
2024-01-16T14:07:51.142Z,46.74
2024-01-16T14:10:19.216Z,46.82
2024-01-16T14:12:47.480Z,46.83
2024-01-16T14:15:20.162Z,46.82
2024-01-16T14:17:48.045Z,46.86
2024-01-16T14:20:15.724Z,46.92
2024-01-16T14:22:42.766Z,46.87
2024-01-16T14:25:13.276Z,46.80
2024-01-16T14:27:43.689Z,46.98
2024-01-16T14:30:14.723Z,46.91
2024-01-16T14:32:42.641Z,46.90
2024-01-16T14:35:10.466Z,46.94
2024-01-16T14:37:37.811Z,46.89
2024-01-16T14:40:21.136Z,46.89
2024-01-16T14:42:54.124Z,46.92
2024-01-16T14:45:21.885Z,46.88
2024-01-16T14:47:49.982Z,46.89
2024-01-16T14:50:20.140Z,46.98
2024-01-16T14:52:49.417Z,46.94
2024-01-16T14:55:17.753Z,47.05
2024-01-16T14:57:47.251Z,47.11
2024-01-16T15:00:20.884Z,46.96
2024-01-16T15:02:48.559Z,46.97
2024-01-16T15:05:19.993Z,46.95
2024-01-16T15:07:47.619Z,46.95
2024-01-16T15:10:16.099Z,46.86
2024-01-16T15:12:43.270Z,46.89
2024-01-16T15:15:12.619Z,47.01
2024-01-16T15:17:39.350Z,46.97
2024-01-16T15:20:08.880Z,47.16
2024-01-16T15:22:39.420Z,47.08
2024-01-16T15:25:06.472Z,46.93
2024-01-16T15:27:33.822Z,46.91
2024-01-16T15:30:01.105Z,47.02
2024-01-16T15:32:27.945Z,47.06
2024-01-16T15:34:54.613Z,46.98
2024-01-16T15:37:21.289Z,47.00
2024-01-16T15:39:48.134Z,47.03
2024-01-16T15:42:14.670Z,47.08
2024-01-16T15:44:41.241Z,47.10
2024-01-16T15:47:08.066Z,47.11
2024-01-16T15:49:36.291Z,47.03
2024-01-16T15:52:03.100Z,47.09
2024-01-16T15:54:31.225Z,47.06
2024-01-16T15:56:58.905Z,47.19
2024-01-16T15:59:26.598Z,47.19
2024-01-16T16:01:53.212Z,47.07
2024-01-16T16:04:19.929Z,47.13
2024-01-16T16:06:46.646Z,47.22
2024-01-16T16:09:13.294Z,47.15
2024-01-16T16:11:45.002Z,47.17
2024-01-16T16:14:12.433Z,47.14
2024-01-16T16:16:39.963Z,47.17
2024-01-16T16:19:06.673Z,47.15
2024-01-16T16:21:33.952Z,47.11
2024-01-16T16:24:01.099Z,47.09
2024-01-16T16:26:37.621Z,47.08
2024-01-16T16:29:06.164Z,47.21
2024-01-16T16:31:33.095Z,47.22
2024-01-16T16:34:00.663Z,47.28
2024-01-16T16:36:27.793Z,47.26
2024-01-16T16:38:55.958Z,47.17
2024-01-16T16:41:23.445Z,47.18
2024-01-16T16:43:50.575Z,47.17
2024-01-16T16:46:17.750Z,47.29
2024-01-16T16:48:45.552Z,47.22
2024-01-16T16:51:13.556Z,47.16
2024-01-16T16:53:44.257Z,47.30
2024-01-16T16:56:15.921Z,47.28
2024-01-16T16:58:43.700Z,47.18
2024-01-16T17:01:11.311Z,47.31
2024-01-16T17:03:38.378Z,47.26
2024-01-16T17:06:06.356Z,47.23
2024-01-16T17:08:34.445Z,47.17
2024-01-16T17:11:00.986Z,47.27
2024-01-16T17:13:29.773Z,47.28
2024-01-16T17:15:59.282Z,47.32
2024-01-16T17:18:29.289Z,47.30
2024-01-16T17:20:57.411Z,47.21
2024-01-16T17:23:24.016Z,47.21
2024-01-16T17:25:50.637Z,47.15
2024-01-16T17:28:17.287Z,47.24
2024-01-16T17:30:44.248Z,47.19
2024-01-16T17:33:11.126Z,47.23
2024-01-16T17:35:38.643Z,47.37
2024-01-16T17:38:05.459Z,47.38
2024-01-16T17:40:32.516Z,47.25
2024-01-16T17:42:59.049Z,47.32
2024-01-16T17:45:25.874Z,47.27
2024-01-16T17:47:52.679Z,47.39
2024-01-16T17:50:19.623Z,47.39
2024-01-16T17:52:46.299Z,47.27
2024-01-16T17:55:12.868Z,47.21
2024-01-16T17:57:41.524Z,47.33
2024-01-16T18:00:10.022Z,47.26
2024-01-16T18:02:38.922Z,47.28
2024-01-16T18:05:10.950Z,47.36
2024-01-16T18:07:39.446Z,47.26
2024-01-16T18:10:09.795Z,47.33
2024-01-16T18:12:39.672Z,47.30
2024-01-16T18:15:15.625Z,47.33
2024-01-16T18:17:45.716Z,47.25
2024-01-16T18:20:13.921Z,47.26
2024-01-16T18:22:41.575Z,47.34
2024-01-16T18:25:09.942Z,47.39
2024-01-16T18:27:36.894Z,47.47
2024-01-16T18:30:05.421Z,47.40
2024-01-16T18:32:33.435Z,47.32
2024-01-16T18:35:00.390Z,47.27
2024-01-16T18:37:27.125Z,47.35
2024-01-16T18:39:54.062Z,47.30
2024-01-16T18:42:23.262Z,47.32
2024-01-16T18:44:50.447Z,47.23
2024-01-16T18:47:17.317Z,47.32
2024-01-16T18:49:44.025Z,47.29
2024-01-16T18:52:10.626Z,47.33
2024-01-16T18:54:37.360Z,47.26
2024-01-16T18:57:04.466Z,47.35
2024-01-16T18:59:31.303Z,47.27
2024-01-16T19:01:59.384Z,47.24
2024-01-16T19:04:26.317Z,47.29
2024-01-16T19:06:53.117Z,47.27
2024-01-16T19:09:19.959Z,47.35
2024-01-16T19:11:49.259Z,47.33
2024-01-16T19:14:17.476Z,47.34
2024-01-16T19:16:44.976Z,47.28
2024-01-16T19:19:11.675Z,47.36
2024-01-16T19:21:38.486Z,47.40
2024-01-16T19:24:05.701Z,47.38
2024-01-16T19:26:32.398Z,47.28
2024-01-16T19:28:59.095Z,47.40
2024-01-16T19:31:26.235Z,47.29
2024-01-16T19:33:53.098Z,47.31
2024-01-16T19:36:19.921Z,47.23
2024-01-16T19:38:46.679Z,47.42
2024-01-16T19:41:14.728Z,47.38
2024-01-16T19:43:41.358Z,47.31
2024-01-16T19:46:09.124Z,47.42
2024-01-16T19:48:39.771Z,47.28
2024-01-16T19:51:06.939Z,47.37
2024-01-16T19:53:34.077Z,47.29
2024-01-16T19:56:06.009Z,47.29
2024-01-16T19:58:32.748Z,47.46
2024-01-16T20:00:59.498Z,47.34
2024-01-16T20:03:27.357Z,47.17
2024-01-16T20:05:54.144Z,47.37
2024-01-16T20:08:21.074Z,47.29
2024-01-16T20:10:47.887Z,47.32
2024-01-16T20:13:14.522Z,47.31
2024-01-16T20:15:41.053Z,47.37
2024-01-16T20:18:09.907Z,47.31
2024-01-16T20:20:37.017Z,47.36
2024-01-16T20:23:04.698Z,47.38
2024-01-16T20:25:31.688Z,47.36
2024-01-16T20:28:00.369Z,47.47
2024-01-16T20:30:26.993Z,47.44
2024-01-16T20:32:55.980Z,47.38
2024-01-16T20:35:23.907Z,47.43
2024-01-16T20:37:51.010Z,47.43
2024-01-16T20:40:17.646Z,47.35
2024-01-16T20:42:44.200Z,47.40
2024-01-16T20:45:11.012Z,47.32
2024-01-16T20:47:38.829Z,47.42
2024-01-16T20:50:06.652Z,47.29
2024-01-16T20:52:34.313Z,47.55
2024-01-16T20:55:06.145Z,47.33
2024-01-16T20:57:33.630Z,47.47
2024-01-16T21:00:00.267Z,47.37
2024-01-16T21:02:27.224Z,47.32
2024-01-16T21:04:53.853Z,47.38
2024-01-16T21:07:23.433Z,47.43
2024-01-16T21:09:50.605Z,47.39
2024-01-16T21:12:17.241Z,47.25
2024-01-16T21:14:44.517Z,47.51
2024-01-16T21:17:11.125Z,47.34
2024-01-16T21:19:37.803Z,47.32
2024-01-16T21:22:06.963Z,47.19
2024-01-16T21:24:34.417Z,47.35
2024-01-16T21:27:01.991Z,47.28
2024-01-16T21:29:28.722Z,47.33
2024-01-16T21:31:56.168Z,47.31
2024-01-16T21:34:23.856Z,47.31
2024-01-16T21:36:52.270Z,47.40
2024-01-16T21:39:20.802Z,47.47
2024-01-16T21:41:47.347Z,47.32
2024-01-16T21:44:14.474Z,47.31
2024-01-16T21:46:42.483Z,47.28
2024-01-16T21:49:09.955Z,47.26
2024-01-16T21:51:36.878Z,47.29
2024-01-16T21:54:06.311Z,47.34
2024-01-16T21:56:33.496Z,47.37
2024-01-16T21:59:00.373Z,47.39
2024-01-16T22:01:29.215Z,47.38
2024-01-16T22:03:56.169Z,47.44
2024-01-16T22:06:23.507Z,47.29
2024-01-16T22:08:50.895Z,47.34
2024-01-16T22:11:17.601Z,47.33
2024-01-16T22:13:45.060Z,47.23
2024-01-16T22:16:12.512Z,47.38
2024-01-16T22:18:39.148Z,47.38
2024-01-16T22:21:06.096Z,47.27
2024-01-16T22:23:32.775Z,47.24
2024-01-16T22:26:01.110Z,47.38
2024-01-16T22:28:30.507Z,47.25
2024-01-16T22:30:57.117Z,47.29
2024-01-16T22:33:24.048Z,47.33
2024-01-16T22:35:50.976Z,47.30
2024-01-16T22:38:19.001Z,47.41
2024-01-16T22:40:46.045Z,47.37
2024-01-16T22:43:12.584Z,47.38
2024-01-16T22:45:40.240Z,47.32
2024-01-16T22:48:11.568Z,47.35
2024-01-16T22:50:40.835Z,47.37
2024-01-16T22:53:07.639Z,47.34
2024-01-16T22:55:34.781Z,47.27
2024-01-16T22:58:03.376Z,47.39
2024-01-16T23:00:30.511Z,47.34
2024-01-16T23:02:57.607Z,47.33
2024-01-16T23:05:27.042Z,47.32
2024-01-16T23:07:54.821Z,47.49
2024-01-16T23:10:22.293Z,47.39
2024-01-16T23:12:49.640Z,47.40
2024-01-16T23:15:16.266Z,47.36
2024-01-16T23:17:43.064Z,47.38
2024-01-16T23:20:13.834Z,47.36
2024-01-16T23:22:43.858Z,47.37
2024-01-16T23:25:10.623Z,47.39
2024-01-16T23:27:41.430Z,47.45
2024-01-16T23:30:10.118Z,47.41
2024-01-16T23:32:38.042Z,47.38
2024-01-16T23:35:06.661Z,47.39
2024-01-16T23:37:33.608Z,47.28
2024-01-16T23:40:00.289Z,47.31
2024-01-16T23:42:27.496Z,47.38
2024-01-16T23:44:57.963Z,47.39
2024-01-16T23:47:24.844Z,47.33
2024-01-16T23:49:54.075Z,47.32
2024-01-16T23:52:20.602Z,47.31
2024-01-16T23:54:47.249Z,47.43
2024-01-16T23:57:14.082Z,47.38
2024-01-16T23:59:41.304Z,47.40
